createdAt,value
2022-08-01T00:01:18.015Z,21.82
2022-08-01T00:03:47.683Z,21.77
2022-08-01T00:06:16.072Z,21.70
2022-08-01T00:08:44.335Z,21.73
2022-08-01T00:11:12.914Z,21.67
2022-08-01T00:13:41.258Z,21.74
2022-08-01T00:16:09.983Z,21.69
2022-08-01T00:18:38.247Z,21.71
2022-08-01T00:21:08.000Z,21.79
2022-08-01T00:23:36.366Z,21.79
2022-08-01T00:26:04.734Z,21.85
2022-08-01T00:28:33.026Z,21.73
2022-08-01T00:31:01.582Z,21.84
2022-08-01T00:33:29.889Z,21.79
2022-08-01T00:35:58.130Z,21.75
2022-08-01T00:38:27.799Z,21.73
2022-08-01T00:40:56.081Z,21.67
2022-08-01T00:43:24.411Z,21.79
2022-08-01T00:45:52.751Z,21.77
2022-08-01T00:48:21.054Z,21.58
2022-08-01T00:50:49.678Z,21.41
2022-08-01T00:53:18.892Z,21.18
2022-08-01T00:55:49.820Z,21.25
2022-08-01T00:58:18.104Z,21.24
2022-08-01T01:00:52.658Z,21.10
2022-08-01T01:03:43.538Z,21.02
2022-08-01T01:06:27.169Z,21.01
2022-08-01T01:09:23.013Z,20.97
2022-08-01T01:12:05.228Z,21.07
2022-08-01T01:14:45.678Z,21.22
2022-08-01T01:17:17.785Z,21.31
2022-08-01T01:20:10.549Z,21.44
2022-08-01T01:22:56.166Z,21.43
2022-08-01T01:25:48.943Z,21.55
2022-08-01T01:28:28.594Z,21.58
2022-08-01T01:31:00.561Z,21.61
2022-08-01T01:33:32.810Z,21.63
2022-08-01T01:36:11.476Z,21.80
2022-08-01T01:38:44.678Z,21.97
2022-08-01T01:41:15.356Z,22.03
2022-08-01T01:43:43.629Z,22.02
2022-08-01T01:46:14.875Z,22.04
2022-08-01T01:48:47.224Z,22.04
2022-08-01T01:51:17.417Z,21.78
2022-08-01T01:53:47.427Z,21.68
2022-08-01T01:56:18.472Z,22.00
2022-08-01T01:58:47.978Z,21.79
2022-08-01T02:01:58.632Z,21.76
2022-08-01T02:04:07.867Z,21.66
2022-08-01T02:06:36.726Z,21.70
2022-08-01T02:09:05.488Z,21.65
2022-08-01T02:11:34.251Z,21.58
2022-08-01T02:14:05.466Z,21.69
2022-08-01T02:16:39.263Z,21.77
2022-08-01T02:19:07.709Z,21.58
2022-08-01T02:21:42.370Z,21.60
2022-08-01T02:24:17.138Z,21.50
2022-08-01T02:26:51.768Z,21.54
2022-08-01T02:29:28.944Z,21.46
2022-08-01T02:32:00.207Z,21.50
2022-08-01T02:34:32.972Z,21.40
2022-08-01T02:37:02.660Z,21.11
2022-08-01T02:39:32.592Z,21.27
2022-08-01T02:42:07.791Z,21.15
2022-08-01T02:44:40.812Z,21.13
2022-08-01T02:47:11.303Z,21.33
2022-08-01T02:49:46.182Z,21.35
2022-08-01T02:52:17.672Z,21.39
2022-08-01T02:54:49.471Z,21.34
2022-08-01T02:57:20.239Z,21.24
2022-08-01T02:59:51.803Z,21.10
2022-08-01T03:02:21.785Z,21.19
2022-08-01T03:04:56.618Z,21.20
2022-08-01T03:07:34.411Z,21.19
2022-08-01T03:10:08.510Z,21.36
2022-08-01T03:12:38.372Z,21.39
2022-08-01T03:15:09.008Z,21.29
2022-08-01T03:17:42.814Z,21.20
2022-08-01T03:20:16.420Z,21.29
2022-08-01T03:22:46.156Z,21.27
2022-08-01T03:25:16.138Z,21.41
2022-08-01T03:27:47.845Z,21.49
2022-08-01T03:30:16.839Z,21.54
2022-08-01T03:32:47.156Z,21.50
2022-08-01T03:35:15.481Z,21.44
2022-08-01T03:38:13.436Z,21.50
2022-08-01T03:40:41.633Z,21.45
2022-08-01T03:43:18.170Z,21.58
2022-08-01T03:45:51.857Z,21.67
2022-08-01T03:48:30.175Z,21.68
2022-08-01T03:51:00.572Z,21.59
2022-08-01T03:53:33.234Z,21.56
2022-08-01T03:56:04.746Z,21.68
2022-08-01T03:58:33.394Z,21.76
2022-08-01T04:01:01.893Z,21.64
2022-08-01T04:03:31.770Z,21.70
2022-08-01T04:06:00.110Z,21.58
2022-08-01T04:08:37.697Z,21.55
2022-08-01T04:11:06.162Z,21.58
2022-08-01T04:13:37.078Z,21.51
2022-08-01T04:16:07.557Z,21.47
2022-08-01T04:18:37.172Z,21.57
2022-08-01T04:21:05.622Z,21.60
2022-08-01T04:23:36.564Z,21.67
2022-08-01T04:26:06.690Z,21.72
2022-08-01T04:28:38.655Z,21.65
2022-08-01T04:31:12.277Z,21.66
2022-08-01T04:33:47.427Z,21.43
2022-08-01T04:36:17.387Z,21.54
2022-08-01T04:38:51.459Z,21.69
2022-08-01T04:41:21.077Z,21.72
2022-08-01T04:43:49.875Z,21.74
2022-08-01T04:46:18.673Z,21.66
2022-08-01T04:48:49.498Z,21.72
2022-08-01T04:51:22.932Z,21.74
2022-08-01T04:53:52.598Z,21.73
2022-08-01T04:56:22.146Z,21.89
2022-08-01T04:59:13.824Z,21.82
2022-08-01T05:01:52.415Z,21.82
2022-08-01T05:04:22.206Z,21.87
2022-08-01T05:06:50.565Z,21.90
2022-08-01T05:09:18.990Z,21.83
2022-08-01T05:11:47.357Z,21.82
2022-08-01T05:14:15.638Z,21.77
2022-08-01T05:16:43.920Z,21.87
2022-08-01T05:19:12.292Z,21.72
2022-08-01T05:21:41.864Z,21.68
2022-08-01T05:24:10.214Z,21.86
2022-08-01T05:26:38.870Z,21.98
2022-08-01T05:29:07.339Z,22.00
2022-08-01T05:31:36.065Z,22.13
2022-08-01T05:34:04.820Z,22.23
2022-08-01T05:36:33.104Z,22.28
2022-08-01T05:39:02.745Z,22.35
2022-08-01T05:41:31.014Z,22.37
2022-08-01T05:43:59.347Z,22.40
2022-08-01T05:46:27.920Z,22.28
2022-08-01T05:48:56.294Z,22.19
2022-08-01T05:51:24.696Z,22.21
2022-08-01T05:53:53.250Z,22.14
2022-08-01T05:56:23.690Z,22.05
2022-08-01T05:58:52.750Z,21.93
2022-08-01T06:01:22.015Z,21.38
2022-08-01T06:03:50.261Z,21.46
2022-08-01T06:06:18.740Z,21.63
2022-08-01T06:08:53.853Z,21.69
2022-08-01T06:11:23.460Z,21.70
2022-08-01T06:13:51.769Z,21.80
2022-08-01T06:16:20.033Z,21.78
2022-08-01T06:18:48.340Z,21.81
2022-08-01T06:21:16.654Z,21.80
2022-08-01T06:23:44.949Z,21.85
2022-08-01T06:26:13.254Z,21.89
2022-08-01T06:28:42.920Z,21.94
2022-08-01T06:31:13.544Z,21.99
2022-08-01T06:33:41.729Z,21.95
2022-08-01T06:36:10.192Z,22.02
2022-08-01T06:38:39.576Z,21.96
2022-08-01T06:41:07.947Z,22.10
2022-08-01T06:43:36.225Z,22.14
2022-08-01T06:46:06.357Z,22.08
2022-08-01T06:48:36.317Z,22.07
2022-08-01T06:51:10.362Z,22.15
2022-08-01T06:53:40.420Z,22.08
2022-08-01T06:56:10.614Z,21.93
2022-08-01T06:58:39.227Z,22.16
2022-08-01T07:01:09.284Z,22.19
2022-08-01T07:03:52.400Z,22.23
2022-08-01T07:06:24.779Z,22.13
2022-08-01T07:08:53.419Z,22.17
2022-08-01T07:11:22.231Z,22.26
2022-08-01T07:13:50.834Z,22.27
2022-08-01T07:16:20.751Z,22.29
2022-08-01T07:18:49.106Z,22.36
2022-08-01T07:21:40.389Z,22.45
2022-08-01T07:24:12.004Z,22.39
2022-08-01T07:26:52.429Z,22.37
2022-08-01T07:29:24.808Z,22.43
2022-08-01T07:31:55.522Z,22.49
2022-08-01T07:34:24.859Z,22.52
2022-08-01T07:36:53.534Z,22.54
2022-08-01T07:39:21.904Z,22.58
2022-08-01T07:42:04.631Z,22.53
2022-08-01T07:44:36.466Z,22.46
2022-08-01T07:47:06.871Z,22.66
2022-08-01T07:49:39.867Z,22.59
2022-08-01T07:52:09.863Z,22.63
2022-08-01T07:54:38.195Z,22.56
2022-08-01T07:57:06.631Z,22.65
2022-08-01T07:59:34.991Z,22.70
2022-08-01T08:02:03.620Z,22.76
2022-08-01T08:04:33.405Z,22.84
2022-08-01T08:07:01.685Z,22.88
2022-08-01T08:09:30.014Z,23.16
2022-08-01T08:11:58.585Z,23.27
2022-08-01T08:14:32.551Z,23.31
2022-08-01T08:17:01.863Z,23.39
2022-08-01T08:19:37.658Z,23.47
2022-08-01T08:22:08.197Z,23.54
2022-08-01T08:24:36.992Z,23.41
2022-08-01T08:27:14.342Z,23.80
2022-08-01T08:29:42.838Z,23.79
2022-08-01T08:32:11.574Z,23.75
2022-08-01T08:34:41.263Z,23.57
2022-08-01T08:37:09.986Z,23.97
2022-08-01T08:39:42.042Z,24.09
2022-08-01T08:42:11.912Z,24.31
2022-08-01T08:44:43.664Z,24.44
2022-08-01T08:47:19.658Z,24.48
2022-08-01T08:49:56.076Z,24.48
2022-08-01T08:52:25.187Z,24.53
2022-08-01T08:54:54.615Z,24.46
2022-08-01T08:57:23.714Z,24.54
2022-08-01T08:59:55.095Z,24.41
2022-08-01T09:02:23.614Z,24.54
2022-08-01T09:04:54.216Z,24.53
2022-08-01T09:07:23.826Z,24.58
2022-08-01T09:09:52.681Z,24.62
2022-08-01T09:12:22.273Z,24.59
2022-08-01T09:14:54.403Z,24.64
2022-08-01T09:17:23.297Z,24.67
2022-08-01T09:19:57.770Z,24.79
2022-08-01T09:22:27.799Z,24.96
2022-08-01T09:25:02.384Z,25.14
2022-08-01T09:27:31.770Z,25.14
2022-08-01T09:30:12.595Z,25.15
2022-08-01T09:32:56.829Z,25.24
2022-08-01T09:35:31.808Z,25.35
2022-08-01T09:38:17.855Z,25.34
2022-08-01T09:40:52.847Z,25.20
2022-08-01T09:43:23.783Z,25.31
2022-08-01T09:45:53.711Z,25.54
2022-08-01T09:48:28.726Z,25.68
2022-08-01T09:51:04.094Z,25.69
2022-08-01T09:53:51.730Z,25.79
2022-08-01T09:56:23.081Z,25.79
2022-08-01T09:58:59.891Z,25.97
2022-08-01T10:01:37.158Z,25.99
2022-08-01T10:04:12.430Z,25.98
2022-08-01T10:06:45.486Z,26.20
2022-08-01T10:09:15.811Z,26.14
2022-08-01T10:11:45.379Z,26.20
2022-08-01T10:14:18.269Z,26.14
2022-08-01T10:16:52.878Z,26.05
2022-08-01T10:19:25.350Z,26.15
2022-08-01T10:22:00.161Z,25.97
2022-08-01T10:24:33.333Z,26.08
2022-08-01T10:27:08.241Z,25.92
2022-08-01T10:29:59.244Z,26.10
2022-08-01T10:32:32.207Z,26.18
2022-08-01T10:35:06.526Z,26.28
2022-08-01T10:37:52.241Z,26.36
2022-08-01T10:40:31.065Z,26.22
2022-08-01T10:43:00.892Z,26.27
2022-08-01T10:45:30.482Z,26.30
2022-08-01T10:48:14.798Z,26.37
2022-08-01T10:50:48.593Z,26.40
2022-08-01T10:53:23.401Z,25.93
2022-08-01T10:56:01.464Z,26.45
2022-08-01T10:58:38.105Z,26.49
2022-08-01T11:01:25.883Z,26.50
2022-08-01T11:04:06.716Z,26.57
2022-08-01T11:06:56.731Z,26.06
2022-08-01T11:09:41.162Z,26.12
2022-08-01T11:12:14.485Z,26.37
2022-08-01T11:15:29.244Z,25.92
2022-08-01T11:18:02.036Z,26.42
2022-08-01T11:20:34.187Z,26.44
2022-08-01T11:23:23.483Z,26.50
2022-08-01T11:26:12.380Z,26.49
2022-08-01T11:28:50.408Z,26.14
2022-08-01T11:31:37.295Z,25.07
2022-08-01T11:34:06.970Z,25.58
2022-08-01T11:39:23.849Z,25.91
2022-08-01T11:41:55.580Z,26.12
2022-08-01T11:44:30.227Z,26.21
2022-08-01T11:47:09.991Z,26.22
2022-08-01T11:49:55.793Z,26.35
2022-08-01T11:52:30.187Z,26.48
2022-08-01T11:55:10.100Z,26.55
2022-08-01T11:57:40.516Z,26.60
2022-08-01T12:00:16.736Z,26.58
2022-08-01T12:02:48.376Z,26.58
2022-08-01T12:05:21.484Z,26.60
2022-08-01T12:07:56.195Z,26.61
2022-08-01T12:10:27.177Z,26.75
2022-08-01T12:13:02.209Z,26.71
2022-08-01T12:15:34.481Z,26.61
2022-08-01T12:18:05.550Z,26.77
2022-08-01T12:20:36.749Z,26.88
2022-08-01T12:23:08.386Z,26.83
2022-08-01T12:25:37.599Z,26.87
2022-08-01T12:28:10.097Z,26.84
2022-08-01T12:30:39.966Z,26.87
2022-08-01T12:33:10.595Z,26.88
2022-08-01T12:35:40.829Z,26.97
2022-08-01T12:38:16.951Z,27.10
2022-08-01T12:40:53.017Z,26.68
2022-08-01T12:43:28.418Z,27.36
2022-08-01T12:46:00.784Z,27.34
2022-08-01T12:48:39.919Z,27.38
2022-08-01T12:51:10.659Z,27.43
2022-08-01T12:53:40.510Z,27.50
2022-08-01T12:56:12.007Z,27.52
2022-08-01T12:58:40.962Z,27.65
2022-08-01T13:01:12.383Z,27.71
2022-08-01T13:03:43.021Z,27.55
2022-08-01T13:06:17.589Z,27.56
2022-08-01T13:08:47.564Z,27.57
2022-08-01T13:11:19.043Z,27.63
2022-08-01T13:13:49.629Z,27.57
2022-08-01T13:16:34.290Z,27.05
2022-08-01T13:19:08.500Z,27.70
2022-08-01T13:21:53.608Z,27.65
2022-08-01T13:24:28.434Z,27.66
2022-08-01T13:27:01.062Z,27.48
2022-08-01T13:29:35.305Z,26.68
2022-08-01T13:32:27.718Z,26.70
2022-08-01T13:35:05.434Z,26.94
2022-08-01T13:37:33.936Z,26.71
2022-08-01T13:40:02.191Z,26.84
2022-08-01T13:42:31.301Z,26.74
2022-08-01T13:44:59.667Z,27.02
2022-08-01T13:47:31.955Z,27.18
2022-08-01T13:50:03.707Z,27.17
2022-08-01T13:52:34.319Z,27.31
2022-08-01T13:55:03.328Z,27.34
2022-08-01T13:57:39.402Z,27.37
2022-08-01T14:00:10.829Z,27.41
2022-08-01T14:02:42.199Z,27.50
2022-08-01T14:05:10.972Z,26.64
2022-08-01T14:07:41.393Z,27.15
2022-08-01T14:10:19.872Z,27.24
2022-08-01T14:12:49.543Z,26.30
2022-08-01T14:15:36.897Z,26.65
2022-08-01T14:18:07.348Z,26.78
2022-08-01T14:20:36.062Z,26.93
2022-08-01T14:23:06.347Z,27.07
2022-08-01T14:26:03.262Z,27.00
2022-08-01T14:28:28.363Z,26.06
2022-08-01T14:30:57.467Z,26.15
2022-08-01T14:33:26.073Z,26.30
2022-08-01T14:36:05.090Z,26.54
2022-08-01T14:38:46.416Z,26.65
2022-08-01T14:41:15.590Z,26.78
2022-08-01T14:43:43.928Z,26.87
2022-08-01T14:46:13.522Z,26.96
2022-08-01T14:48:42.474Z,27.10
2022-08-01T14:51:11.411Z,27.22
2022-08-01T14:53:41.548Z,27.15
2022-08-01T14:56:15.522Z,26.92
2022-08-01T14:58:44.055Z,26.86
2022-08-01T15:01:12.364Z,27.06
2022-08-01T15:03:41.706Z,27.18
2022-08-01T15:06:12.205Z,27.18
2022-08-01T15:08:40.341Z,26.76
2022-08-01T15:11:09.644Z,26.70
2022-08-01T15:13:42.385Z,26.63
2022-08-01T15:16:12.114Z,26.54
2022-08-01T15:18:43.072Z,26.79
2022-08-01T15:21:17.301Z,26.91
2022-08-01T15:23:49.261Z,26.99
2022-08-01T15:26:17.567Z,26.27
2022-08-01T15:28:47.287Z,25.61
2022-08-01T15:31:15.686Z,26.08
2022-08-01T15:33:43.930Z,26.16
2022-08-01T15:36:15.208Z,26.22
2022-08-01T15:38:43.780Z,26.01
2022-08-01T15:41:12.187Z,26.01
2022-08-01T15:43:43.958Z,25.86
2022-08-01T15:46:14.602Z,26.06
2022-08-01T15:48:42.908Z,26.14
2022-08-01T15:51:11.315Z,26.26
2022-08-01T15:53:40.160Z,25.71
2022-08-01T15:56:08.502Z,25.58
2022-08-01T15:58:36.850Z,25.46
2022-08-01T16:01:05.161Z,25.75
2022-08-01T16:03:34.938Z,25.87
2022-08-01T16:06:03.386Z,25.53
2022-08-01T16:08:31.843Z,25.81
2022-08-01T16:11:00.141Z,25.50
2022-08-01T16:13:28.475Z,25.74
2022-08-01T16:15:56.782Z,25.42
2022-08-01T16:18:25.058Z,25.59
2022-08-01T16:20:54.737Z,25.77
2022-08-01T16:23:23.053Z,25.94
2022-08-01T16:25:51.640Z,26.08
2022-08-01T16:28:20.897Z,26.17
2022-08-01T16:31:01.349Z,26.16
2022-08-01T16:33:42.872Z,26.24
2022-08-01T16:36:19.810Z,26.27
2022-08-01T16:40:47.194Z,25.32
2022-08-01T16:43:17.050Z,25.70
2022-08-01T16:45:45.782Z,25.90
2022-08-01T16:48:17.394Z,26.02
2022-08-01T16:50:49.364Z,26.11
2022-08-01T16:53:19.482Z,26.18
2022-08-01T16:55:51.102Z,26.27
2022-08-01T16:58:27.779Z,26.17
2022-08-01T17:01:52.612Z,26.37
2022-08-01T17:03:52.454Z,26.42
2022-08-01T17:06:22.617Z,26.51
2022-08-01T17:08:51.149Z,26.48
2022-08-01T17:11:20.849Z,26.39
2022-08-01T17:13:49.356Z,26.44
2022-08-01T17:16:17.706Z,26.57
2022-08-01T17:18:46.116Z,26.60
2022-08-01T17:21:14.501Z,26.63
2022-08-01T17:23:42.767Z,26.65
2022-08-01T17:26:11.378Z,26.46
2022-08-01T17:28:41.086Z,26.51
2022-08-01T17:31:10.541Z,26.58
2022-08-01T17:33:46.143Z,26.62
2022-08-01T17:36:17.795Z,26.42
2022-08-01T17:38:46.118Z,26.48
2022-08-01T17:41:14.660Z,25.77
2022-08-01T17:43:44.614Z,25.65
2022-08-01T17:46:12.964Z,25.08
2022-08-01T17:48:41.267Z,25.21
2022-08-01T17:51:09.543Z,24.90
2022-08-01T17:53:55.741Z,24.90
2022-08-01T17:56:27.111Z,24.92
2022-08-01T17:58:57.902Z,25.24
2022-08-01T18:01:27.426Z,25.25
2022-08-01T18:03:57.456Z,25.29
2022-08-01T18:06:27.509Z,25.35
2022-08-01T18:08:59.736Z,25.49
2022-08-01T18:11:37.343Z,25.63
2022-08-01T18:14:07.473Z,25.55
2022-08-01T18:16:35.824Z,25.61
2022-08-01T18:19:06.597Z,25.60
2022-08-01T18:21:38.556Z,25.68
2022-08-01T18:24:09.875Z,25.67
2022-08-01T18:26:38.189Z,25.72
2022-08-01T18:29:07.970Z,25.76
2022-08-01T18:31:36.394Z,25.81
2022-08-01T18:34:04.747Z,25.80
2022-08-01T18:36:34.479Z,25.79
2022-08-01T18:39:10.119Z,25.77
2022-08-01T18:41:40.443Z,25.74
2022-08-01T18:44:10.385Z,25.69
2022-08-01T18:46:39.809Z,25.74
2022-08-01T18:49:10.720Z,25.73
2022-08-01T18:51:44.399Z,25.63
2022-08-01T18:54:14.716Z,25.60
2022-08-01T18:56:43.288Z,25.63
2022-08-01T18:59:13.898Z,25.58
2022-08-01T19:01:42.116Z,25.58
2022-08-01T19:04:11.096Z,25.44
2022-08-01T19:06:40.387Z,25.47
2022-08-01T19:09:09.245Z,25.37
2022-08-01T19:11:38.684Z,25.40
2022-08-01T19:14:07.057Z,25.40
2022-08-01T19:16:36.847Z,25.32
2022-08-01T19:19:09.679Z,25.37
2022-08-01T19:21:44.350Z,25.33
2022-08-01T19:24:23.602Z,25.12
2022-08-01T19:26:55.311Z,24.88
2022-08-01T19:29:27.389Z,24.70
2022-08-01T19:32:06.782Z,24.75
2022-08-01T19:34:44.115Z,24.74
2022-08-01T19:37:13.305Z,24.68
2022-08-01T19:39:45.671Z,24.68
2022-08-01T19:42:15.004Z,24.07
2022-08-01T19:44:45.727Z,24.67
2022-08-01T19:47:16.918Z,24.66
2022-08-01T19:49:45.423Z,24.60
2022-08-01T19:52:16.861Z,24.59
2022-08-01T19:54:46.857Z,24.62
2022-08-01T19:57:16.778Z,24.64
2022-08-01T19:59:47.567Z,24.58
2022-08-01T20:02:20.771Z,24.51
2022-08-01T20:04:50.163Z,24.49
2022-08-01T20:07:18.605Z,24.45
2022-08-01T20:09:50.714Z,24.42
2022-08-01T20:12:23.587Z,24.41
2022-08-01T20:14:53.818Z,24.38
2022-08-01T20:17:25.054Z,24.35
2022-08-01T20:19:54.230Z,24.25
2022-08-01T20:22:29.283Z,24.24
2022-08-01T20:25:00.985Z,24.09
2022-08-01T20:27:33.108Z,23.83
2022-08-01T20:30:02.470Z,23.71
2022-08-01T20:32:35.896Z,23.35
2022-08-01T20:35:06.522Z,23.16
2022-08-01T20:38:06.427Z,22.88
2022-08-01T20:40:28.307Z,23.04
2022-08-01T20:42:57.599Z,22.96
2022-08-01T20:45:27.640Z,22.11
2022-08-01T20:47:59.504Z,22.33
2022-08-01T20:50:52.418Z,22.22
2022-08-01T20:53:23.661Z,22.01
2022-08-01T20:56:05.407Z,21.73
2022-08-01T20:58:47.546Z,21.02
2022-08-01T21:01:22.304Z,21.33
2022-08-01T21:04:09.551Z,21.16
2022-08-01T21:06:40.281Z,21.05
2022-08-01T21:09:08.640Z,21.00
2022-08-01T21:11:44.469Z,20.86
2022-08-01T21:14:15.491Z,20.77
2022-08-01T21:16:52.020Z,20.85
2022-08-01T21:19:28.832Z,20.90
2022-08-01T21:22:09.974Z,20.73
2022-08-01T21:24:58.306Z,20.69
2022-08-01T21:27:33.035Z,20.59
2022-08-01T21:30:06.271Z,20.58
2022-08-01T21:32:36.124Z,20.57
2022-08-01T21:35:16.482Z,20.47
2022-08-01T21:37:52.193Z,20.54
2022-08-01T21:40:26.284Z,20.62
2022-08-01T21:42:55.654Z,20.62
2022-08-01T21:45:25.943Z,20.64
2022-08-01T21:47:55.438Z,20.63
2022-08-01T21:50:25.953Z,20.74
2022-08-01T21:53:11.556Z,20.72
2022-08-01T21:55:53.138Z,20.70
2022-08-01T21:58:35.771Z,20.65
2022-08-01T22:01:11.633Z,20.64
2022-08-01T22:03:47.248Z,20.57
2022-08-01T22:06:21.254Z,20.35
2022-08-01T22:08:52.802Z,20.41
2022-08-01T22:11:24.999Z,19.99
2022-08-01T22:13:56.016Z,20.12
2022-08-01T22:16:26.974Z,20.24
2022-08-01T22:18:56.194Z,20.27
2022-08-01T22:21:28.695Z,20.35
2022-08-01T22:23:59.094Z,20.29
2022-08-01T22:26:29.636Z,20.31
2022-08-01T22:28:58.314Z,20.29
2022-08-01T22:31:27.485Z,20.09
2022-08-01T22:33:56.977Z,19.95
2022-08-01T22:36:28.863Z,20.15
2022-08-01T22:38:57.888Z,20.11
2022-08-01T22:42:01.698Z,20.09
2022-08-01T22:44:27.862Z,20.10
2022-08-01T22:47:05.560Z,20.15
2022-08-01T22:49:40.536Z,20.11
2022-08-01T22:52:19.016Z,20.00
2022-08-01T22:54:52.854Z,19.88
2022-08-01T22:57:31.350Z,19.87
2022-08-01T23:00:03.600Z,19.98
2022-08-01T23:02:35.712Z,19.97
2022-08-01T23:05:07.560Z,20.04
2022-08-01T23:07:45.988Z,20.05
2022-08-01T23:10:14.663Z,20.25
2022-08-01T23:12:45.480Z,20.14
2022-08-01T23:15:14.695Z,20.20
2022-08-01T23:17:44.503Z,20.23
2022-08-01T23:20:13.819Z,20.34
2022-08-01T23:22:44.337Z,20.29
2022-08-01T23:25:15.246Z,20.05
2022-08-01T23:27:51.572Z,19.76
2022-08-01T23:30:35.537Z,19.63
2022-08-01T23:33:04.098Z,19.73
2022-08-01T23:35:38.731Z,19.66
2022-08-01T23:38:10.205Z,19.87
2022-08-01T23:40:39.673Z,20.00
2022-08-01T23:43:16.564Z,20.01
2022-08-01T23:46:03.746Z,20.22
2022-08-01T23:48:34.788Z,20.28
2022-08-01T23:51:03.500Z,20.20
2022-08-01T23:53:33.694Z,20.14
2022-08-01T23:56:04.826Z,20.29
2022-08-01T23:58:33.526Z,20.31
